createdAt,value
2018-07-05T05:05:44.832Z,4.23
2018-07-05T05:11:05.768Z,3.10
2018-07-05T05:16:26.838Z,2.50
2018-07-05T05:21:48.624Z,3.40
2018-07-05T05:27:09.806Z,2.63
2018-07-05T05:32:31.108Z,2.60
2018-07-05T05:37:52.296Z,3.73
2018-07-05T05:43:13.322Z,3.90
2018-07-05T05:48:35.178Z,5.67
2018-07-05T05:53:56.291Z,4.20
2018-07-05T05:59:18.107Z,2.27
2018-07-05T06:04:39.285Z,2.77
2018-07-05T06:10:00.383Z,5.50
2018-07-05T06:15:21.461Z,5.27
2018-07-05T06:20:42.630Z,3.03
2018-07-05T06:26:03.881Z,3.33
2018-07-05T06:31:25.743Z,4.07
2018-07-05T06:36:47.699Z,3.60
2018-07-05T06:42:08.914Z,3.60
2018-07-05T06:47:30.801Z,3.77
2018-07-05T06:52:51.902Z,2.90
2018-07-05T06:58:13.011Z,2.97
2018-07-05T07:03:34.024Z,2.77
2018-07-05T07:08:55.078Z,3.60
2018-07-05T07:14:16.921Z,2.70
2018-07-05T07:19:38.800Z,2.30
2018-07-05T07:25:00.685Z,3.27
2018-07-05T07:30:22.213Z,2.93
2018-07-05T07:35:43.404Z,3.10
2018-07-05T07:41:04.474Z,3.30
2018-07-05T07:46:07.011Z,3.37
2018-07-05T07:51:09.567Z,5.63
2018-07-05T07:56:12.114Z,4.87
2018-07-05T08:01:14.648Z,3.40
2018-07-05T08:06:17.191Z,4.17
2018-07-05T08:11:20.489Z,3.40
2018-07-05T08:16:23.794Z,4.33
2018-07-05T08:21:26.329Z,3.90
2018-07-05T08:26:28.877Z,4.67
2018-07-05T08:31:31.451Z,4.87
2018-07-05T08:36:34.003Z,4.83
2018-07-05T08:41:36.547Z,3.93
2018-07-05T08:46:39.087Z,5.33
2018-07-05T08:51:42.393Z,4.37
2018-07-05T08:56:44.931Z,4.33
2018-07-05T09:01:47.475Z,4.60
2018-07-05T09:06:50.015Z,5.13
2018-07-05T09:11:52.583Z,6.00
2018-07-05T09:16:55.139Z,6.40
2018-07-05T09:21:57.684Z,4.57
2018-07-05T09:27:00.230Z,4.37
2018-07-05T09:32:02.766Z,4.83
2018-07-05T09:37:05.381Z,3.20
2018-07-05T09:42:07.859Z,4.40
2018-07-05T09:47:10.403Z,3.33
2018-07-05T09:52:12.942Z,2.93
2018-07-05T09:57:15.491Z,2.57
2018-07-05T10:02:18.024Z,4.73
2018-07-05T10:07:20.579Z,2.60
2018-07-05T10:12:23.123Z,4.57
2018-07-05T10:17:25.669Z,4.20
2018-07-05T10:22:28.213Z,2.50
2018-07-05T10:27:30.750Z,5.27
2018-07-05T10:32:51.878Z,3.47
2018-07-05T10:37:54.385Z,2.90
2018-07-05T10:43:15.379Z,4.40
2018-07-05T10:48:36.591Z,3.00
2018-07-05T10:53:57.677Z,3.23
2018-07-05T10:59:19.518Z,5.97
2018-07-05T11:04:40.543Z,3.70
2018-07-05T11:10:01.735Z,4.90
2018-07-05T11:15:22.791Z,3.67
2018-07-05T11:20:43.866Z,2.90
2018-07-05T11:26:04.984Z,3.67
2018-07-05T11:31:27.049Z,3.97
2018-07-05T11:36:48.158Z,4.30
2018-07-05T11:42:10.102Z,4.00
2018-07-05T11:47:31.149Z,4.53
2018-07-05T11:52:52.415Z,3.90
2018-07-05T11:58:13.378Z,5.33
2018-07-05T12:03:34.559Z,5.60
2018-07-05T12:08:55.670Z,3.90
2018-07-05T12:14:16.907Z,5.13
2018-07-05T12:19:37.991Z,6.13
2018-07-05T12:24:59.274Z,6.27
2018-07-05T12:30:20.419Z,6.33
2018-07-05T12:35:41.407Z,7.03
2018-07-05T12:41:03.201Z,7.93
2018-07-05T12:46:24.401Z,9.77
2018-07-05T12:51:45.651Z,11.60
2018-07-05T12:57:06.759Z,12.50
2018-07-05T13:02:27.877Z,10.73
2018-07-05T13:07:49.198Z,12.60
2018-07-05T13:13:10.250Z,11.97
2018-07-05T13:18:31.440Z,11.27
2018-07-05T13:23:52.550Z,8.43
2018-07-05T13:29:13.856Z,9.10
2018-07-05T13:34:35.075Z,5.40
2018-07-05T13:39:56.139Z,7.90
2018-07-05T13:45:17.205Z,5.23
2018-07-05T13:50:39.591Z,5.67
2018-07-05T13:56:01.359Z,4.77
2018-07-05T14:01:22.442Z,3.50
2018-07-05T14:06:43.380Z,2.33
2018-07-05T14:12:05.500Z,4.37
2018-07-05T14:17:26.806Z,5.27
2018-07-05T14:22:47.840Z,2.70
2018-07-05T14:28:08.978Z,2.70
2018-07-05T14:33:30.166Z,3.60
2018-07-05T14:38:51.283Z,2.63
2018-07-05T14:44:13.035Z,3.37
2018-07-05T14:49:34.882Z,4.23
2018-07-05T14:54:56.729Z,2.43
2018-07-05T15:00:18.627Z,2.93
2018-07-05T15:05:39.700Z,3.10
2018-07-05T15:11:01.557Z,3.33
2018-07-05T15:16:22.691Z,2.77
2018-07-05T15:21:43.757Z,2.40
2018-07-05T15:27:05.012Z,2.43
2018-07-05T15:32:26.253Z,2.67
2018-07-05T15:37:47.437Z,1.67
2018-07-05T15:43:08.515Z,2.07
2018-07-05T15:48:30.414Z,1.93
2018-07-05T15:53:51.589Z,4.67
2018-07-05T16:04:48.799Z,1.63
2018-07-05T16:10:09.976Z,1.73
2018-07-05T16:15:31.005Z,1.70
2018-07-05T16:20:52.102Z,2.10
2018-07-05T16:26:14.046Z,1.93
2018-07-05T16:31:36.016Z,2.07
2018-07-05T16:36:56.967Z,1.83
2018-07-05T16:42:18.280Z,1.67
2018-07-05T16:47:40.107Z,1.57
2018-07-05T16:53:02.138Z,2.10
2018-07-05T16:58:23.525Z,1.80
2018-07-05T17:03:44.592Z,2.37
2018-07-05T17:09:05.741Z,2.17
2018-07-05T17:14:27.652Z,1.43
2018-07-05T17:19:48.730Z,1.80
2018-07-05T17:25:10.578Z,1.90
2018-07-05T17:30:36.547Z,3.07
2018-07-05T17:35:57.527Z,2.73
2018-07-05T17:41:18.474Z,1.60
2018-07-05T17:46:40.266Z,1.93
2018-07-05T17:52:01.223Z,2.00
2018-07-05T17:57:22.823Z,2.80
2018-07-05T18:02:44.152Z,1.67
2018-07-05T18:08:05.306Z,2.33
2018-07-05T18:13:26.381Z,2.47
2018-07-05T18:18:48.328Z,1.67
2018-07-05T18:24:10.874Z,1.73
2018-07-05T18:29:31.868Z,1.80
2018-07-05T18:34:53.014Z,2.80
2018-07-05T18:40:14.185Z,1.53
2018-07-05T18:45:36.007Z,2.43
2018-07-05T18:50:57.100Z,1.50
2018-07-05T18:56:18.295Z,1.53
2018-07-05T19:01:39.396Z,1.53
2018-07-05T19:07:00.544Z,2.60
2018-07-05T19:12:22.487Z,1.70
2018-07-05T19:17:44.412Z,1.40
2018-07-05T19:23:05.433Z,1.50
2018-07-05T19:28:26.501Z,1.87
2018-07-05T19:33:47.567Z,1.40
2018-07-05T19:39:08.915Z,1.60
2018-07-05T19:44:30.016Z,2.17
2018-07-05T19:49:51.442Z,3.13
2018-07-05T19:55:12.754Z,3.53
2018-07-05T20:00:35.769Z,4.70
2018-07-05T20:05:56.926Z,5.07
2018-07-05T20:11:18.222Z,3.47
2018-07-05T20:16:39.323Z,4.73
2018-07-05T20:22:01.160Z,5.93
2018-07-05T20:27:23.017Z,3.90
2018-07-05T20:32:44.987Z,3.50
2018-07-05T20:38:05.956Z,3.60
2018-07-05T20:43:27.156Z,5.43
2018-07-05T20:48:50.401Z,3.77
2018-07-05T20:54:12.247Z,3.97
2018-07-05T20:59:34.095Z,3.50
2018-07-05T21:04:55.210Z,4.70
2018-07-05T21:10:16.458Z,3.90
2018-07-05T21:15:38.324Z,4.47
2018-07-05T21:21:02.875Z,4.90
2018-07-05T21:26:23.850Z,4.53
2018-07-05T21:31:45.022Z,3.93
2018-07-05T21:37:06.021Z,4.00
2018-07-05T21:42:27.131Z,3.40
2018-07-05T21:47:48.260Z,3.57
2018-07-05T21:53:09.303Z,3.00
2018-07-05T21:58:30.314Z,4.50
2018-07-05T22:03:51.973Z,3.70
2018-07-05T22:09:13.047Z,4.60
2018-07-05T22:14:34.145Z,4.87
2018-07-05T22:25:56.992Z,4.00
